createdAt,value
2022-12-11T00:01:20.293Z,14.63
2022-12-11T00:03:48.000Z,13.48
2022-12-11T00:06:18.540Z,13.32
2022-12-11T00:08:45.514Z,14.90
2022-12-11T00:11:14.755Z,16.48
2022-12-11T00:13:42.113Z,14.02
2022-12-11T00:16:10.139Z,14.38
2022-12-11T00:18:37.505Z,15.82
2022-12-11T00:21:07.386Z,15.15
2022-12-11T00:23:35.644Z,13.25
2022-12-11T00:26:07.123Z,18.35
2022-12-11T00:28:34.463Z,14.10
2022-12-11T00:31:06.024Z,24.02
2022-12-11T00:33:33.126Z,18.73
2022-12-11T00:36:00.387Z,21.85
2022-12-11T00:38:27.823Z,21.55
2022-12-11T00:40:59.371Z,21.60
2022-12-11T00:43:26.381Z,22.20
2022-12-11T00:45:53.318Z,19.20
2022-12-11T00:48:20.388Z,22.58
2022-12-11T00:50:47.370Z,21.73
2022-12-11T00:53:14.481Z,19.65
2022-12-11T00:55:43.054Z,16.88
2022-12-11T00:58:11.373Z,23.05
2022-12-11T01:00:39.540Z,21.38
2022-12-11T01:03:07.491Z,21.65
2022-12-11T01:05:34.650Z,18.20
2022-12-11T01:08:02.440Z,21.58
2022-12-11T01:10:29.526Z,21.38
2022-12-11T01:13:03.135Z,21.25
2022-12-11T01:15:37.469Z,21.63
2022-12-11T01:18:07.185Z,22.27
2022-12-11T01:20:34.206Z,18.70
2022-12-11T01:23:01.449Z,22.13
2022-12-11T01:25:29.163Z,26.30
2022-12-11T01:27:56.357Z,17.90
2022-12-11T01:30:25.333Z,19.20
2022-12-11T01:32:52.681Z,21.48
2022-12-11T01:35:20.373Z,20.40
2022-12-11T01:37:47.832Z,17.67
2022-12-11T01:40:17.215Z,14.82
2022-12-11T01:42:44.783Z,18.05
2022-12-11T01:45:53.249Z,20.83
2022-12-11T01:48:23.985Z,17.13
2022-12-11T01:50:56.910Z,20.70
2022-12-11T01:53:29.299Z,17.77
2022-12-11T01:55:58.866Z,19.95
2022-12-11T02:01:02.840Z,17.40
2022-12-11T02:03:30.357Z,19.45
2022-12-11T02:06:01.339Z,21.85
2022-12-11T02:08:29.275Z,25.10
2022-12-11T02:11:05.406Z,15.98
2022-12-11T02:13:59.009Z,18.25
2022-12-11T02:16:52.001Z,20.98
2022-12-11T02:19:39.190Z,29.80
2022-12-11T02:22:11.734Z,18.88
2022-12-11T02:24:44.618Z,20.02
2022-12-11T02:27:20.869Z,20.88
2022-12-11T02:29:50.824Z,23.55
2022-12-11T02:32:27.610Z,18.23
2022-12-11T02:35:07.533Z,26.23
2022-12-11T02:37:37.624Z,23.58
2022-12-11T02:40:09.277Z,18.73
2022-12-11T02:42:40.051Z,39.63
2022-12-11T02:45:09.754Z,28.65
2022-12-11T02:47:38.066Z,20.25
2022-12-11T02:50:10.695Z,19.23
2022-12-11T02:52:40.013Z,23.10
2022-12-11T02:55:09.453Z,29.05
2022-12-11T03:00:09.090Z,19.17
2022-12-11T03:02:38.037Z,30.17
2022-12-11T03:05:05.543Z,29.25
2022-12-11T03:07:36.552Z,28.30
2022-12-11T03:10:07.163Z,28.38
2022-12-11T03:12:38.894Z,21.45
2022-12-11T03:15:10.303Z,37.38
2022-12-11T03:18:03.949Z,17.52
2022-12-11T03:20:33.682Z,44.50
2022-12-11T03:23:23.834Z,23.88
2022-12-11T03:25:58.569Z,30.17
2022-12-11T03:28:49.469Z,23.27
2022-12-11T03:31:42.681Z,20.55
2022-12-11T03:36:43.350Z,23.15
2022-12-11T03:39:16.983Z,23.48
2022-12-11T03:41:46.341Z,27.63
2022-12-11T03:44:14.338Z,28.10
2022-12-11T03:46:43.658Z,31.10
2022-12-11T03:49:17.746Z,31.77
2022-12-11T03:51:48.473Z,20.33
2022-12-11T03:54:16.922Z,18.65
2022-12-11T03:56:46.716Z,26.23
2022-12-11T03:59:13.681Z,33.85
2022-12-11T04:01:40.696Z,19.10
2022-12-11T04:04:07.870Z,21.35
2022-12-11T04:06:34.855Z,33.63
2022-12-11T04:09:01.880Z,20.60
2022-12-11T04:11:34.708Z,15.88
2022-12-11T04:14:25.191Z,20.95
2022-12-11T04:16:52.662Z,39.85
2022-12-11T04:19:39.288Z,21.27
2022-12-11T04:22:25.009Z,29.58
2022-12-11T04:24:52.031Z,28.33
2022-12-11T04:27:39.208Z,30.80
2022-12-11T04:30:09.718Z,26.13
2022-12-11T04:32:36.724Z,13.35
2022-12-11T04:35:04.468Z,20.52
2022-12-11T04:37:31.511Z,20.80
2022-12-11T04:39:58.474Z,28.17
2022-12-11T04:42:25.491Z,19.05
2022-12-11T04:44:52.536Z,18.17
2022-12-11T04:47:19.523Z,17.23
2022-12-11T04:49:46.621Z,26.38
2022-12-11T04:52:13.609Z,24.08
2022-12-11T04:54:40.723Z,23.88
2022-12-11T04:57:07.815Z,18.35
2022-12-11T04:59:34.951Z,16.30
2022-12-11T05:02:01.988Z,12.73
2022-12-11T05:04:33.822Z,17.83
2022-12-11T05:07:01.735Z,17.48
2022-12-11T05:09:28.827Z,12.40
2022-12-11T05:11:55.847Z,16.25
2022-12-11T05:14:23.061Z,18.45
2022-12-11T05:16:50.050Z,10.60
2022-12-11T05:19:17.255Z,15.82
2022-12-11T05:21:44.206Z,16.42
2022-12-11T05:24:11.242Z,16.25
2022-12-11T05:26:38.217Z,20.95
2022-12-11T05:29:05.646Z,15.25
2022-12-11T05:31:32.843Z,14.98
2022-12-11T05:33:59.974Z,17.02
2022-12-11T05:36:31.155Z,26.17
2022-12-11T05:38:59.741Z,17.65
2022-12-11T05:41:29.453Z,19.50
2022-12-11T05:43:56.611Z,12.10
2022-12-11T05:46:26.110Z,15.00
2022-12-11T05:48:57.008Z,14.07
2022-12-11T05:51:24.565Z,15.27
2022-12-11T05:53:52.925Z,17.23
2022-12-11T05:56:26.350Z,15.18
2022-12-11T05:58:54.624Z,14.57
2022-12-11T06:01:27.476Z,14.52
2022-12-11T06:03:55.633Z,21.50
2022-12-11T06:06:23.527Z,17.52
2022-12-11T06:08:51.682Z,18.00
2022-12-11T06:11:23.720Z,17.95
2022-12-11T06:13:52.194Z,16.17
2022-12-11T06:16:20.095Z,16.48
2022-12-11T06:18:47.851Z,16.60
2022-12-11T06:21:24.043Z,16.52
2022-12-11T06:23:52.968Z,19.85
2022-12-11T06:26:21.252Z,20.83
2022-12-11T06:28:48.605Z,16.40
2022-12-11T06:31:15.822Z,13.98
2022-12-11T06:33:43.405Z,17.23
2022-12-11T06:36:12.989Z,13.80
2022-12-11T06:38:40.296Z,15.20
2022-12-11T06:41:08.465Z,18.10
2022-12-11T06:43:37.769Z,13.82
2022-12-11T06:46:06.070Z,13.98
2022-12-11T06:48:34.012Z,17.98
2022-12-11T06:51:06.813Z,13.93
2022-12-11T06:53:33.997Z,21.67
2022-12-11T06:56:06.067Z,20.10
2022-12-11T06:58:35.513Z,15.98
2022-12-11T07:01:04.403Z,16.55
2022-12-11T07:03:31.446Z,22.45
2022-12-11T07:06:02.459Z,18.88
2022-12-11T07:08:29.986Z,19.02
2022-12-11T07:11:09.150Z,18.10
2022-12-11T07:13:36.763Z,20.63
2022-12-11T07:16:05.812Z,19.65
2022-12-11T07:18:32.902Z,21.40
2022-12-11T07:21:02.450Z,18.35
2022-12-11T07:23:29.597Z,16.25
2022-12-11T07:25:57.767Z,15.10
2022-12-11T07:28:24.788Z,22.58
2022-12-11T07:30:51.814Z,17.70
2022-12-11T07:33:18.776Z,16.75
2022-12-11T07:35:45.744Z,21.23
2022-12-11T07:38:12.836Z,19.85
2022-12-11T07:40:39.850Z,20.02
2022-12-11T07:43:07.146Z,20.83
2022-12-11T07:45:34.221Z,18.13
2022-12-11T07:48:01.202Z,16.98
2022-12-11T07:50:28.323Z,14.23
2022-12-11T07:52:55.437Z,21.25
2022-12-11T07:55:22.452Z,19.63
2022-12-11T07:57:49.675Z,47.47
2022-12-11T08:00:17.273Z,22.02
2022-12-11T08:02:44.268Z,16.58
2022-12-11T08:05:12.584Z,22.30
2022-12-11T08:07:40.121Z,19.42
2022-12-11T08:10:07.288Z,22.08
2022-12-11T08:12:34.349Z,16.75
2022-12-11T08:15:01.299Z,18.15
2022-12-11T08:17:31.029Z,21.10
2022-12-11T08:19:59.849Z,23.88
2022-12-11T08:22:26.861Z,16.95
2022-12-11T08:24:53.859Z,18.67
2022-12-11T08:27:20.862Z,23.15
2022-12-11T08:29:47.904Z,22.35
2022-12-11T08:32:16.889Z,20.08
2022-12-11T08:34:44.384Z,21.83
2022-12-11T08:37:11.499Z,19.70
2022-12-11T08:39:38.504Z,19.08
2022-12-11T08:42:05.489Z,22.65
2022-12-11T08:44:32.485Z,20.88
2022-12-11T08:46:59.449Z,19.67
2022-12-11T08:49:28.660Z,25.70
2022-12-11T08:51:59.755Z,23.70
2022-12-11T08:54:26.730Z,20.48
2022-12-11T08:56:57.987Z,20.88
2022-12-11T08:59:25.924Z,22.83
2022-12-11T09:01:55.370Z,22.83
2022-12-11T09:04:23.307Z,23.65
2022-12-11T09:06:50.403Z,19.88
2022-12-11T09:09:17.374Z,28.48
2022-12-11T09:11:44.589Z,22.55
2022-12-11T09:14:11.699Z,23.92
2022-12-11T09:16:40.829Z,22.38
2022-12-11T09:19:12.924Z,23.00
2022-12-11T09:21:42.423Z,23.52
2022-12-11T09:24:10.943Z,21.65
2022-12-11T09:26:38.551Z,33.55
2022-12-11T09:29:06.377Z,21.27
2022-12-11T09:31:36.447Z,28.17
2022-12-11T09:34:08.267Z,23.52
2022-12-11T09:36:35.519Z,26.45
2022-12-11T09:39:04.539Z,30.25
2022-12-11T09:41:38.872Z,28.23
2022-12-11T09:44:11.618Z,23.40
2022-12-11T09:46:40.401Z,23.17
2022-12-11T09:49:22.859Z,19.77
2022-12-11T09:52:13.816Z,20.27
2022-12-11T09:54:58.030Z,22.50
2022-12-11T09:57:27.642Z,28.73
2022-12-11T10:02:34.910Z,26.65
2022-12-11T10:05:16.776Z,15.82
2022-12-11T10:08:17.472Z,18.75
2022-12-11T10:10:54.338Z,13.77
2022-12-11T10:13:34.590Z,16.60
2022-12-11T10:16:19.206Z,18.38
2022-12-11T10:18:47.715Z,16.52
2022-12-11T10:21:18.742Z,18.13
2022-12-11T10:23:59.510Z,17.38
2022-12-11T10:26:29.612Z,19.40
2022-12-11T10:29:00.933Z,18.20
2022-12-11T10:31:42.876Z,17.13
2022-12-11T10:34:20.570Z,20.13
2022-12-11T10:36:47.619Z,17.63
2022-12-11T10:39:18.427Z,16.40
2022-12-11T10:41:48.069Z,17.85
2022-12-11T10:47:15.666Z,16.00
2022-12-11T10:49:56.673Z,15.38
2022-12-11T10:52:31.727Z,16.90
2022-12-11T10:55:49.988Z,17.15
2022-12-11T10:58:26.697Z,18.67
2022-12-11T11:01:23.824Z,18.60
2022-12-11T11:04:06.737Z,14.63
2022-12-11T11:06:33.916Z,19.77
2022-12-11T11:09:02.191Z,17.88
2022-12-11T11:11:33.904Z,18.15
2022-12-11T11:14:19.616Z,23.00
2022-12-11T11:16:51.244Z,16.38
2022-12-11T11:19:30.076Z,19.05
2022-12-11T11:22:01.532Z,18.77
2022-12-11T11:24:31.164Z,16.73
2022-12-11T11:27:13.209Z,18.52
2022-12-11T11:29:41.647Z,15.32
2022-12-11T11:32:22.647Z,16.98
2022-12-11T11:34:49.706Z,19.30
2022-12-11T11:37:45.712Z,16.75
2022-12-11T11:40:45.139Z,18.20
2022-12-11T11:43:29.158Z,16.73
2022-12-11T11:46:28.791Z,18.40
2022-12-11T11:49:32.856Z,18.63
2022-12-11T11:52:13.466Z,17.13
2022-12-11T11:54:53.194Z,16.65
2022-12-11T11:57:59.142Z,14.70
2022-12-11T12:00:33.299Z,17.92
2022-12-11T12:03:15.289Z,16.90
2022-12-11T12:08:21.794Z,16.38
2022-12-11T12:11:14.325Z,14.82
2022-12-11T12:13:59.102Z,14.68
2022-12-11T12:16:52.269Z,17.67
2022-12-11T12:19:53.137Z,13.95
2022-12-11T12:22:38.683Z,13.30
2022-12-11T12:25:24.493Z,17.45
2022-12-11T12:27:59.859Z,13.30
2022-12-11T12:30:38.012Z,17.20
2022-12-11T12:33:27.987Z,15.20
2022-12-11T12:36:24.063Z,15.65
2022-12-11T12:39:01.259Z,18.42
2022-12-11T12:41:49.251Z,15.43
2022-12-11T12:44:19.481Z,16.60
2022-12-11T12:47:08.850Z,16.20
2022-12-11T12:49:46.007Z,18.15
2022-12-11T12:52:37.432Z,13.82
2022-12-11T12:55:14.596Z,16.17
2022-12-11T12:57:55.924Z,12.95
2022-12-11T13:00:33.055Z,12.10
2022-12-11T13:03:13.130Z,21.35
2022-12-11T13:05:43.519Z,9.60
2022-12-11T13:08:12.128Z,25.27
2022-12-11T13:10:42.531Z,11.60
2022-12-11T13:13:32.610Z,21.60
2022-12-11T13:16:25.720Z,11.57
2022-12-11T13:21:35.120Z,10.52
2022-12-11T13:24:20.253Z,13.25
2022-12-11T13:26:49.158Z,9.98
2022-12-11T13:29:36.010Z,14.45
2022-12-11T13:32:18.187Z,12.85
2022-12-11T13:34:53.767Z,13.40
2022-12-11T13:39:54.028Z,14.20
2022-12-11T13:42:28.401Z,14.07
2022-12-11T13:44:55.871Z,13.65
2022-12-11T13:47:24.098Z,13.93
2022-12-11T13:49:55.793Z,12.95
2022-12-11T13:52:31.155Z,13.65
2022-12-11T13:54:59.401Z,11.23
2022-12-11T13:57:28.562Z,10.48
2022-12-11T13:59:57.461Z,9.10
2022-12-11T14:02:28.061Z,12.82
2022-12-11T14:05:02.060Z,12.88
2022-12-11T14:07:33.973Z,9.10
2022-12-11T14:10:06.660Z,13.38
2022-12-11T14:12:34.109Z,11.82
2022-12-11T14:15:02.701Z,10.88
2022-12-11T14:17:34.858Z,9.43
2022-12-11T14:20:07.575Z,10.38
2022-12-11T14:22:34.972Z,11.32
2022-12-11T14:25:19.844Z,11.60
2022-12-11T14:27:55.440Z,9.68
2022-12-11T14:30:33.554Z,10.00
2022-12-11T14:33:05.315Z,13.13
2022-12-11T14:35:42.702Z,9.80
2022-12-11T14:38:25.193Z,11.63
2022-12-11T14:40:59.266Z,9.70
2022-12-11T14:43:36.683Z,10.15
2022-12-11T14:46:17.005Z,14.63
2022-12-11T14:49:01.062Z,12.38
2022-12-11T14:51:34.587Z,9.90
2022-12-11T14:54:04.271Z,13.15
2022-12-11T14:56:31.985Z,10.88
2022-12-11T14:59:03.207Z,14.27
2022-12-11T15:01:35.285Z,11.82
2022-12-11T15:04:16.508Z,11.52
2022-12-11T15:06:46.221Z,10.43
2022-12-11T15:09:30.228Z,14.13
2022-12-11T15:12:07.802Z,10.45
2022-12-11T15:14:34.960Z,10.30
2022-12-11T15:17:02.064Z,10.95
2022-12-11T15:19:33.506Z,10.38
2022-12-11T15:22:06.663Z,12.13
2022-12-11T15:24:54.149Z,12.35
2022-12-11T15:27:39.873Z,9.88
2022-12-11T15:30:15.908Z,12.13
2022-12-11T15:32:43.086Z,12.80
2022-12-11T15:35:25.407Z,10.32
2022-12-11T15:37:54.912Z,12.15
2022-12-11T15:40:22.800Z,11.13
2022-12-11T15:42:50.976Z,9.57
2022-12-11T15:45:20.706Z,10.40
2022-12-11T15:50:29.081Z,11.50
2022-12-11T15:52:57.427Z,10.68
2022-12-11T15:55:27.500Z,8.50
2022-12-11T15:57:58.383Z,10.27
2022-12-11T16:00:27.660Z,10.73
2022-12-11T16:02:55.740Z,10.35
2022-12-11T16:05:23.503Z,12.05
2022-12-11T16:08:00.297Z,9.00
2022-12-11T16:10:27.703Z,11.27
2022-12-11T16:12:59.623Z,16.30
2022-12-11T16:15:27.662Z,12.48
2022-12-11T16:18:12.796Z,8.93
2022-12-11T16:20:41.456Z,10.45
2022-12-11T16:23:09.663Z,14.35
2022-12-11T16:25:41.575Z,9.27
2022-12-11T16:28:10.978Z,10.95
2022-12-11T16:30:38.444Z,14.23
2022-12-11T16:33:12.012Z,13.32
2022-12-11T16:35:39.451Z,9.65
2022-12-11T16:38:06.618Z,11.20
2022-12-11T16:40:33.647Z,10.82
2022-12-11T16:43:00.696Z,16.35
2022-12-11T16:45:28.463Z,12.15
2022-12-11T16:47:55.571Z,12.70
2022-12-11T16:50:23.705Z,18.20
2022-12-11T16:52:50.716Z,11.85
2022-12-11T16:55:21.193Z,10.48
2022-12-11T16:57:48.546Z,10.77
2022-12-11T17:00:16.258Z,9.15
2022-12-11T17:02:43.617Z,11.18
2022-12-11T17:05:11.232Z,9.07
2022-12-11T17:07:38.614Z,11.68
2022-12-11T17:10:06.018Z,9.50
2022-12-11T17:12:33.057Z,9.57
2022-12-11T17:15:00.096Z,8.82
2022-12-11T17:17:27.291Z,8.30
2022-12-11T17:19:56.056Z,8.65
2022-12-11T17:22:23.135Z,8.50
2022-12-11T17:24:50.182Z,7.68
2022-12-11T17:27:17.166Z,7.40
2022-12-11T17:29:44.286Z,8.07
2022-12-11T17:32:11.364Z,9.27
2022-12-11T17:34:38.873Z,9.63
2022-12-11T17:37:06.586Z,9.20
2022-12-11T17:39:33.718Z,6.60
2022-12-11T17:42:01.084Z,6.93
2022-12-11T17:44:30.741Z,6.10
2022-12-11T17:46:58.995Z,6.80
2022-12-11T17:49:26.915Z,6.45
2022-12-11T17:51:55.516Z,7.95
2022-12-11T17:54:24.125Z,9.50
2022-12-11T17:56:51.473Z,7.97
2022-12-11T17:59:18.692Z,6.40
2022-12-11T18:01:46.194Z,7.43
2022-12-11T18:04:13.663Z,7.55
2022-12-11T18:06:41.016Z,7.28
2022-12-11T18:09:08.495Z,5.50
2022-12-11T18:11:35.581Z,5.70
2022-12-11T18:14:02.774Z,4.82
2022-12-11T18:16:33.215Z,6.00
2022-12-11T18:19:00.487Z,5.50
2022-12-11T18:21:32.118Z,6.28
2022-12-11T18:24:00.090Z,5.78
2022-12-11T18:26:29.285Z,5.57
2022-12-11T18:28:56.351Z,7.65
2022-12-11T18:31:24.056Z,8.98
2022-12-11T18:33:52.489Z,7.55
2022-12-11T18:36:20.713Z,5.90
2022-12-11T18:38:48.812Z,6.43
2022-12-11T18:41:17.804Z,6.18
2022-12-11T18:43:45.230Z,5.20
2022-12-11T18:46:15.389Z,6.07
2022-12-11T18:48:43.807Z,5.75
2022-12-11T18:51:13.984Z,6.35
2022-12-11T18:53:41.403Z,5.07
2022-12-11T18:56:11.786Z,4.88
2022-12-11T18:58:39.023Z,7.45
2022-12-11T19:01:12.097Z,6.10
2022-12-11T19:03:39.182Z,8.93
2022-12-11T19:06:18.523Z,6.35
2022-12-11T19:08:46.104Z,5.40
2022-12-11T19:11:21.213Z,6.30
2022-12-11T19:13:49.266Z,6.88
2022-12-11T19:16:22.285Z,5.68
2022-12-11T19:18:49.708Z,6.45
2022-12-11T19:21:18.043Z,5.85
2022-12-11T19:23:46.214Z,6.25
2022-12-11T19:26:16.082Z,11.63
2022-12-11T19:28:43.448Z,6.25
2022-12-11T19:31:12.342Z,7.05
2022-12-11T19:33:41.110Z,7.20
2022-12-11T19:36:11.285Z,6.65
2022-12-11T19:38:40.008Z,9.80
2022-12-11T19:41:09.151Z,6.82
2022-12-11T19:43:36.329Z,8.38
2022-12-11T19:46:05.546Z,6.93
2022-12-11T19:48:33.044Z,7.43
2022-12-11T19:51:13.193Z,6.05
2022-12-11T19:53:41.867Z,6.15
2022-12-11T19:56:10.294Z,6.72
2022-12-11T19:58:37.986Z,8.60
2022-12-11T20:01:05.887Z,6.10
2022-12-11T20:03:34.779Z,6.60
2022-12-11T20:06:02.558Z,8.90
2022-12-11T20:08:44.080Z,7.22
2022-12-11T20:11:18.007Z,6.32
2022-12-11T20:13:49.300Z,9.70
2022-12-11T20:16:18.596Z,6.15
2022-12-11T20:18:46.971Z,6.55
2022-12-11T20:21:16.222Z,8.07
2022-12-11T20:23:43.654Z,7.13
2022-12-11T20:26:22.886Z,12.35
2022-12-11T20:28:51.534Z,8.13
2022-12-11T20:31:24.157Z,9.18
2022-12-11T20:33:53.018Z,9.35
2022-12-11T20:36:21.783Z,8.80
2022-12-11T20:38:49.526Z,10.15
2022-12-11T20:41:19.503Z,8.40
2022-12-11T20:43:47.286Z,8.70
2022-12-11T20:46:15.317Z,10.00
2022-12-11T20:48:44.256Z,9.27
2022-12-11T20:51:15.015Z,8.27
2022-12-11T20:53:42.965Z,14.27
2022-12-11T20:56:20.031Z,9.18
2022-12-11T20:58:47.838Z,11.38
2022-12-11T21:01:20.154Z,10.30
2022-12-11T21:03:47.988Z,10.98
2022-12-11T21:06:20.274Z,9.25
2022-12-11T21:08:47.461Z,11.00
2022-12-11T21:11:14.809Z,9.77
2022-12-11T21:13:41.931Z,11.20
2022-12-11T21:16:09.896Z,11.98
2022-12-11T21:18:37.647Z,10.95
2022-12-11T21:21:04.901Z,11.32
2022-12-11T21:23:32.295Z,9.95
2022-12-11T21:25:59.655Z,11.98
2022-12-11T21:28:30.647Z,10.25
2022-12-11T21:31:03.080Z,13.30
2022-12-11T21:33:30.153Z,11.30
2022-12-11T21:35:59.189Z,10.63
2022-12-11T21:38:26.852Z,11.52
2022-12-11T21:40:54.653Z,14.23
2022-12-11T21:43:22.185Z,13.60
2022-12-11T21:46:01.037Z,14.48
2022-12-11T21:48:28.814Z,16.13
2022-12-11T21:50:56.228Z,12.68
2022-12-11T21:53:23.255Z,13.30
2022-12-11T21:55:50.277Z,15.40
2022-12-11T21:58:17.250Z,18.75
2022-12-11T22:00:45.760Z,14.80
2022-12-11T22:03:13.981Z,13.73
2022-12-11T22:05:40.966Z,16.83
2022-12-11T22:08:08.425Z,16.52
2022-12-11T22:10:36.480Z,16.05
2022-12-11T22:13:03.481Z,17.25
2022-12-11T22:15:30.508Z,19.65
2022-12-11T22:17:57.442Z,19.48
2022-12-11T22:20:24.419Z,20.50
2022-12-11T22:22:51.395Z,25.35
2022-12-11T22:25:18.453Z,19.55
2022-12-11T22:27:45.489Z,27.55
2022-12-11T22:30:12.952Z,22.48
2022-12-11T22:32:40.671Z,26.52
2022-12-11T22:35:07.986Z,27.35
2022-12-11T22:37:34.970Z,26.63
2022-12-11T22:40:02.091Z,28.63
2022-12-11T22:42:30.729Z,25.55
2022-12-11T22:44:57.701Z,29.38
2022-12-11T22:47:24.821Z,28.85
2022-12-11T22:49:51.860Z,26.48
2022-12-11T22:52:18.931Z,26.85
2022-12-11T22:54:46.146Z,30.73
2022-12-11T22:57:14.361Z,28.25
2022-12-11T22:59:41.647Z,28.42
2022-12-11T23:02:08.772Z,30.55
2022-12-11T23:04:35.869Z,31.55
2022-12-11T23:07:03.507Z,26.63
2022-12-11T23:09:30.544Z,26.35
2022-12-11T23:11:58.632Z,34.53
2022-12-11T23:14:26.090Z,27.90
2022-12-11T23:16:53.236Z,30.33
2022-12-11T23:19:25.305Z,27.33
2022-12-11T23:21:53.369Z,34.88
2022-12-11T23:24:20.336Z,29.30
2022-12-11T23:26:48.254Z,24.55
2022-12-11T23:29:15.356Z,24.23
2022-12-11T23:31:42.338Z,25.90
2022-12-11T23:34:09.303Z,23.95
2022-12-11T23:36:36.519Z,21.92
2022-12-11T23:39:04.514Z,24.73
2022-12-11T23:41:31.560Z,19.15
2022-12-11T23:43:59.309Z,21.60
2022-12-11T23:46:26.548Z,22.83
2022-12-11T23:48:54.516Z,20.65
2022-12-11T23:51:23.833Z,18.13
2022-12-11T23:53:51.129Z,20.45
2022-12-11T23:56:21.488Z,19.55
2022-12-11T23:58:48.515Z,20.70
